sensor_id;sensor_type;location;lat;lon;timestamp;pressure;altitude;pressure_sealevel;temperature;humidity
62025;BME280;47978;49.118;12.146;2022-09-09T00:01:37;97246.75;;;12.72;96.61
62025;BME280;47978;49.118;12.146;2022-09-09T00:04:13;97263.06;;;12.82;96.59
62025;BME280;47978;49.118;12.146;2022-09-09T00:06:46;97253.59;;;12.75;95.90
62025;BME280;47978;49.118;12.146;2022-09-09T00:09:19;97257.03;;;12.80;96.16
62025;BME280;47978;49.118;12.146;2022-09-09T00:11:51;97251.81;;;12.79;96.00
62025;BME280;47978;49.118;12.146;2022-09-09T00:14:22;97235.47;;;12.77;96.14
62025;BME280;47978;49.118;12.146;2022-09-09T00:16:54;97243.78;;;12.86;95.98
62025;BME280;47978;49.118;12.146;2022-09-09T00:19:24;97237.44;;;12.68;96.28
62025;BME280;47978;49.118;12.146;2022-09-09T00:22:03;97232.41;;;12.62;96.70
62025;BME280;47978;49.118;12.146;2022-09-09T00:24:37;97238.59;;;12.50;97.62
62025;BME280;47978;49.118;12.146;2022-09-09T00:27:09;97232.69;;;12.51;97.90
62025;BME280;47978;49.118;12.146;2022-09-09T00:29:43;97234.81;;;12.46;97.80
62025;BME280;47978;49.118;12.146;2022-09-09T00:32:13;97235.47;;;12.51;97.22
62025;BME280;47978;49.118;12.146;2022-09-09T00:34:48;97234.00;;;12.54;97.59
62025;BME280;47978;49.118;12.146;2022-09-09T00:37:18;97231.88;;;12.51;97.48
62025;BME280;47978;49.118;12.146;2022-09-09T00:39:46;97225.84;;;12.57;97.43
62025;BME280;47978;49.118;12.146;2022-09-09T00:42:16;97232.53;;;12.56;97.24
62025;BME280;47978;49.118;12.146;2022-09-09T00:44:52;97226.03;;;12.52;97.19
62025;BME280;47978;49.118;12.146;2022-09-09T00:47:40;97230.06;;;12.46;96.93
62025;BME280;47978;49.118;12.146;2022-09-09T00:50:22;97234.34;;;12.52;97.01
62025;BME280;47978;49.118;12.146;2022-09-09T00:52:59;97234.97;;;12.49;96.69
62025;BME280;47978;49.118;12.146;2022-09-09T00:55:35;97240.53;;;12.49;97.14
62025;BME280;47978;49.118;12.146;2022-09-09T00:58:06;97231.38;;;12.49;97.23
62025;BME280;47978;49.118;12.146;2022-09-09T01:00:38;97236.13;;;12.48;96.73
62025;BME280;47978;49.118;12.146;2022-09-09T01:03:18;97241.81;;;12.43;96.87
62025;BME280;47978;49.118;12.146;2022-09-09T01:05:54;97232.53;;;12.39;96.66
62025;BME280;47978;49.118;12.146;2022-09-09T01:08:37;97235.16;;;12.35;96.75
62025;BME280;47978;49.118;12.146;2022-09-09T01:11:10;97243.47;;;12.35;96.77
62025;BME280;47978;49.118;12.146;2022-09-09T01:13:41;97244.72;;;12.29;96.78
62025;BME280;47978;49.118;12.146;2022-09-09T01:16:11;97241.50;;;12.27;96.85
62025;BME280;47978;49.118;12.146;2022-09-09T01:18:40;97242.81;;;12.30;96.95
62025;BME280;47978;49.118;12.146;2022-09-09T01:21:15;97235.28;;;12.30;96.86
62025;BME280;47978;49.118;12.146;2022-09-09T01:24:05;97237.91;;;12.27;96.97
62025;BME280;47978;49.118;12.146;2022-09-09T01:26:37;97246.16;;;12.09;97.28
62025;BME280;47978;49.118;12.146;2022-09-09T01:29:07;97249.44;;;12.11;97.41
62025;BME280;47978;49.118;12.146;2022-09-09T01:31:36;97248.47;;;12.16;97.59
62025;BME280;47978;49.118;12.146;2022-09-09T01:34:09;97244.56;;;12.17;97.54
62025;BME280;47978;49.118;12.146;2022-09-09T01:36:39;97220.28;;;12.23;97.46
62025;BME280;47978;49.118;12.146;2022-09-09T01:39:09;97224.84;;;12.27;97.14
62025;BME280;47978;49.118;12.146;2022-09-09T01:41:37;97223.41;;;12.30;97.30
62025;BME280;47978;49.118;12.146;2022-09-09T01:44:05;97223.22;;;12.35;97.80
62025;BME280;47978;49.118;12.146;2022-09-09T01:46:32;97228.28;;;12.33;97.62
62025;BME280;47978;49.118;12.146;2022-09-09T01:49:00;97228.09;;;12.29;97.36
62025;BME280;47978;49.118;12.146;2022-09-09T01:51:28;97218.97;;;12.37;97.43
62025;BME280;47978;49.118;12.146;2022-09-09T01:53:55;97219.16;;;12.32;97.12
62025;BME280;47978;49.118;12.146;2022-09-09T01:56:29;97223.38;;;12.21;97.14
62025;BME280;47978;49.118;12.146;2022-09-09T01:59:18;97227.44;;;12.24;97.09
62025;BME280;47978;49.118;12.146;2022-09-09T02:01:57;97233.16;;;12.19;97.48
62025;BME280;47978;49.118;12.146;2022-09-09T02:04:36;97232.50;;;12.13;97.38
62025;BME280;47978;49.118;12.146;2022-09-09T02:07:08;97244.88;;;12.07;97.03
62025;BME280;47978;49.118;12.146;2022-09-09T02:09:41;97237.81;;;12.01;97.40
62025;BME280;47978;49.118;12.146;2022-09-09T02:12:14;97238.81;;;12.05;97.25
62025;BME280;47978;49.118;12.146;2022-09-09T02:14:48;97245.84;;;12.11;97.25
62025;BME280;47978;49.118;12.146;2022-09-09T02:17:19;97239.19;;;12.21;96.78
62025;BME280;47978;49.118;12.146;2022-09-09T02:19:52;97237.41;;;12.25;97.01
62025;BME280;47978;49.118;12.146;2022-09-09T02:22:22;97247.19;;;12.22;96.15
62025;BME280;47978;49.118;12.146;2022-09-09T02:24:54;97245.53;;;12.12;96.58
62025;BME280;47978;49.118;12.146;2022-09-09T02:27:23;97242.25;;;12.10;96.58
62025;BME280;47978;49.118;12.146;2022-09-09T02:29:53;97241.47;;;12.10;96.74
62025;BME280;47978;49.118;12.146;2022-09-09T02:32:23;97245.19;;;12.05;96.68
62025;BME280;47978;49.118;12.146;2022-09-09T02:34:53;97236.88;;;12.14;96.87
62025;BME280;47978;49.118;12.146;2022-09-09T02:37:23;97234.28;;;12.26;96.83
62025;BME280;47978;49.118;12.146;2022-09-09T02:39:52;97242.59;;;12.18;96.21
62025;BME280;47978;49.118;12.146;2022-09-09T02:42:19;97233.63;;;12.12;96.20
62025;BME280;47978;49.118;12.146;2022-09-09T02:44:46;97239.38;;;12.24;96.63
62025;BME280;47978;49.118;12.146;2022-09-09T02:47:32;97231.84;;;12.25;95.60
62025;BME280;47978;49.118;12.146;2022-09-09T02:50:10;97237.06;;;12.18;95.86
62025;BME280;47978;49.118;12.146;2022-09-09T02:52:51;97234.13;;;12.14;95.89
62025;BME280;47978;49.118;12.146;2022-09-09T02:55:24;97231.50;;;12.18;96.17
62025;BME280;47978;49.118;12.146;2022-09-09T02:57:56;97231.81;;;12.07;96.38
62025;BME280;47978;49.118;12.146;2022-09-09T03:00:26;97235.69;;;11.98;96.44
62025;BME280;47978;49.118;12.146;2022-09-09T03:02:54;97226.25;;;11.99;97.09
62025;BME280;47978;49.118;12.146;2022-09-09T03:05:21;97228.69;;;11.91;96.66
62025;BME280;47978;49.118;12.146;2022-09-09T03:07:48;97229.97;;;11.85;97.24
62025;BME280;47978;49.118;12.146;2022-09-09T03:10:14;97225.25;;;11.95;96.82
62025;BME280;47978;49.118;12.146;2022-09-09T03:12:41;97219.25;;;12.01;97.21
62025;BME280;47978;49.118;12.146;2022-09-09T03:15:08;97214.38;;;12.07;96.62
62025;BME280;47978;49.118;12.146;2022-09-09T03:17:35;97214.53;;;12.02;96.73
62025;BME280;47978;49.118;12.146;2022-09-09T03:20:04;97212.84;;;11.92;96.88
62025;BME280;47978;49.118;12.146;2022-09-09T03:22:31;97221.69;;;11.94;97.93
62025;BME280;47978;49.118;12.146;2022-09-09T03:24:57;97224.13;;;11.96;97.54
62025;BME280;47978;49.118;12.146;2022-09-09T03:27:24;97223.50;;;11.99;97.85
62025;BME280;47978;49.118;12.146;2022-09-09T03:29:51;97222.50;;;11.95;98.26
62025;BME280;47978;49.118;12.146;2022-09-09T03:32:17;97224.81;;;12.01;98.09
62025;BME280;47978;49.118;12.146;2022-09-09T03:34:44;97228.84;;;12.04;99.32
62025;BME280;47978;49.118;12.146;2022-09-09T03:37:12;97236.38;;;12.12;99.12
62025;BME280;47978;49.118;12.146;2022-09-09T03:39:38;97235.75;;;12.15;99.81
62025;BME280;47978;49.118;12.146;2022-09-09T03:42:05;97229.22;;;12.20;99.83
62025;BME280;47978;49.118;12.146;2022-09-09T03:44:32;97229.41;;;12.23;100.00
62025;BME280;47978;49.118;12.146;2022-09-09T03:46:58;97233.66;;;12.29;100.00
62025;BME280;47978;49.118;12.146;2022-09-09T03:49:25;97233.03;;;12.32;99.79
62025;BME280;47978;49.118;12.146;2022-09-09T03:51:52;97235.97;;;12.36;99.67
62025;BME280;47978;49.118;12.146;2022-09-09T03:54:19;97229.25;;;12.28;99.50
62025;BME280;47978;49.118;12.146;2022-09-09T03:56:46;97230.72;;;12.34;99.31
62025;BME280;47978;49.118;12.146;2022-09-09T03:59:12;97223.06;;;12.40;99.53
62025;BME280;47978;49.118;12.146;2022-09-09T04:01:39;97220.28;;;12.40;99.46
62025;BME280;47978;49.118;12.146;2022-09-09T04:04:06;97216.88;;;12.43;98.98
62025;BME280;47978;49.118;12.146;2022-09-09T04:06:32;97223.25;;;12.44;99.32
62025;BME280;47978;49.118;12.146;2022-09-09T04:08:59;97225.69;;;12.45;99.11
62025;BME280;47978;49.118;12.146;2022-09-09T04:11:26;97224.88;;;12.45;99.50
62025;BME280;47978;49.118;12.146;2022-09-09T04:13:53;97228.31;;;12.42;99.25
62025;BME280;47978;49.118;12.146;2022-09-09T04:16:19;97223.72;;;12.46;99.59
62025;BME280;47978;49.118;12.146;2022-09-09T04:18:46;97219.34;;;12.45;99.90
62025;BME280;47978;49.118;12.146;2022-09-09T04:21:13;97228.47;;;12.45;99.95
62025;BME280;47978;49.118;12.146;2022-09-09T04:23:40;97230.72;;;12.43;99.84
62025;BME280;47978;49.118;12.146;2022-09-09T04:26:06;97228.47;;;12.45;99.92
62025;BME280;47978;49.118;12.146;2022-09-09T04:28:35;97221.59;;;12.43;99.70
62025;BME280;47978;49.118;12.146;2022-09-09T04:31:07;97227.81;;;12.40;99.81
62025;BME280;47978;49.118;12.146;2022-09-09T04:33:33;97227.16;;;12.43;99.94
62025;BME280;47978;49.118;12.146;2022-09-09T04:36:05;97227.31;;;12.46;99.91
62025;BME280;47978;49.118;12.146;2022-09-09T04:38:32;97227.16;;;12.43;99.68
62025;BME280;47978;49.118;12.146;2022-09-09T04:40:59;97226.50;;;12.46;99.45
62025;BME280;47978;49.118;12.146;2022-09-09T04:43:26;97226.50;;;12.54;98.79
62025;BME280;47978;49.118;12.146;2022-09-09T04:45:53;97226.03;;;12.52;99.07
62025;BME280;47978;49.118;12.146;2022-09-09T04:48:20;97226.66;;;12.49;98.55
62025;BME280;47978;49.118;12.146;2022-09-09T04:50:55;97220.28;;;12.49;98.34
62025;BME280;47978;49.118;12.146;2022-09-09T04:53:22;97221.94;;;12.50;97.98
62025;BME280;47978;49.118;12.146;2022-09-09T04:55:48;97224.72;;;12.50;98.11
62025;BME280;47978;49.118;12.146;2022-09-09T04:58:15;97227.66;;;12.53;98.42
62025;BME280;47978;49.118;12.146;2022-09-09T05:00:41;97221.28;;;12.70;97.91
62025;BME280;47978;49.118;12.146;2022-09-09T05:03:09;97223.41;;;12.73;97.13
62025;BME280;47978;49.118;12.146;2022-09-09T05:05:36;97228.47;;;12.71;97.90
62025;BME280;47978;49.118;12.146;2022-09-09T05:08:04;97218.38;;;12.75;98.09
62025;BME280;47978;49.118;12.146;2022-09-09T05:10:31;97218.66;;;12.82;97.73
62025;BME280;47978;49.118;12.146;2022-09-09T05:12:58;97218.81;;;12.95;97.58
62025;BME280;47978;49.118;12.146;2022-09-09T05:15:25;97228.44;;;13.06;97.16
62025;BME280;47978;49.118;12.146;2022-09-09T05:17:52;97225.50;;;13.11;96.87
62025;BME280;47978;49.118;12.146;2022-09-09T05:20:19;97225.00;;;13.00;97.06
62025;BME280;47978;49.118;12.146;2022-09-09T05:22:46;97222.88;;;13.15;97.26
62025;BME280;47978;49.118;12.146;2022-09-09T05:25:13;97223.53;;;13.29;96.88
62025;BME280;47978;49.118;12.146;2022-09-09T05:27:39;97222.53;;;13.34;96.68
62025;BME280;47978;49.118;12.146;2022-09-09T05:30:07;97224.81;;;13.32;96.89
62025;BME280;47978;49.118;12.146;2022-09-09T05:32:34;97233.94;;;13.49;96.80
62025;BME280;47978;49.118;12.146;2022-09-09T05:35:00;97239.28;;;13.55;96.41
62025;BME280;47978;49.118;12.146;2022-09-09T05:37:28;97248.78;;;13.54;97.10
62025;BME280;47978;49.118;12.146;2022-09-09T05:39:55;97248.47;;;13.55;98.35
62025;BME280;47978;49.118;12.146;2022-09-09T05:42:21;97249.53;;;13.71;98.17
62025;BME280;47978;49.118;12.146;2022-09-09T05:44:48;97260.97;;;13.79;97.65
62025;BME280;47978;49.118;12.146;2022-09-09T05:47:14;97251.06;;;13.99;97.58
62025;BME280;47978;49.118;12.146;2022-09-09T05:49:41;97253.31;;;14.05;97.28
62025;BME280;47978;49.118;12.146;2022-09-09T05:52:07;97253.72;;;14.25;97.74
62025;BME280;47978;49.118;12.146;2022-09-09T05:54:35;97262.31;;;14.40;96.75
62025;BME280;47978;49.118;12.146;2022-09-09T05:57:02;97256.25;;;14.38;96.33
62025;BME280;47978;49.118;12.146;2022-09-09T05:59:29;97256.06;;;14.44;95.23
62025;BME280;47978;49.118;12.146;2022-09-09T06:01:55;97250.00;;;14.42;95.15
62025;BME280;47978;49.118;12.146;2022-09-09T06:04:22;97247.56;;;14.40;95.38
62025;BME280;47978;49.118;12.146;2022-09-09T06:06:48;97252.84;;;14.33;95.83
62025;BME280;47978;49.118;12.146;2022-09-09T06:09:15;97254.22;;;14.48;95.25
62025;BME280;47978;49.118;12.146;2022-09-09T06:11:43;97249.09;;;14.58;94.38
62025;BME280;47978;49.118;12.146;2022-09-09T06:14:09;97251.22;;;14.61;94.46
62025;BME280;47978;49.118;12.146;2022-09-09T06:16:36;97244.75;;;14.91;94.28
62025;BME280;47978;49.118;12.146;2022-09-09T06:19:03;97250.72;;;15.01;93.04
62025;BME280;47978;49.118;12.146;2022-09-09T06:21:31;97251.22;;;15.03;92.79
62025;BME280;47978;49.118;12.146;2022-09-09T06:23:59;97258.59;;;15.20;92.20
62025;BME280;47978;49.118;12.146;2022-09-09T06:26:28;97270.34;;;15.26;91.39
62025;BME280;47978;49.118;12.146;2022-09-09T06:28:57;97260.91;;;15.18;92.21
62025;BME280;47978;49.118;12.146;2022-09-09T06:31:25;97261.97;;;15.26;92.40
62025;BME280;47978;49.118;12.146;2022-09-09T06:33:56;97265.81;;;15.34;91.39
62025;BME280;47978;49.118;12.146;2022-09-09T06:36:25;97257.34;;;15.30;91.49
62025;BME280;47978;49.118;12.146;2022-09-09T06:38:51;97260.41;;;15.37;90.80
62025;BME280;47978;49.118;12.146;2022-09-09T06:41:20;97262.72;;;15.47;89.95
62025;BME280;47978;49.118;12.146;2022-09-09T06:43:47;97257.28;;;15.51;90.27
62025;BME280;47978;49.118;12.146;2022-09-09T06:46:16;97263.44;;;15.44;89.66
62025;BME280;47978;49.118;12.146;2022-09-09T06:48:44;97265.53;;;15.47;89.75
62025;BME280;47978;49.118;12.146;2022-09-09T06:51:12;97264.13;;;15.41;90.60
62025;BME280;47978;49.118;12.146;2022-09-09T06:53:40;97273.34;;;15.54;89.93
62025;BME280;47978;49.118;12.146;2022-09-09T06:56:18;97277.84;;;15.80;89.52
62025;BME280;47978;49.118;12.146;2022-09-09T06:58:45;97270.78;;;16.07;87.95
62025;BME280;47978;49.118;12.146;2022-09-09T07:01:13;97266.69;;;16.16;87.23
62025;BME280;47978;49.118;12.146;2022-09-09T07:03:42;97271.13;;;16.42;86.26
62025;BME280;47978;49.118;12.146;2022-09-09T07:06:13;97272.75;;;16.55;85.46
62025;BME280;47978;49.118;12.146;2022-09-09T07:08:40;97272.63;;;16.64;84.73
62025;BME280;47978;49.118;12.146;2022-09-09T07:11:07;97266.94;;;17.13;83.43
62025;BME280;47978;49.118;12.146;2022-09-09T07:13:37;97268.97;;;17.28;82.33
62025;BME280;47978;49.118;12.146;2022-09-09T07:16:05;97271.00;;;17.44;82.14
62025;BME280;47978;49.118;12.146;2022-09-09T07:18:32;97264.81;;;17.50;79.19
62025;BME280;47978;49.118;12.146;2022-09-09T07:21:01;97277.72;;;17.27;80.24
62025;BME280;47978;49.118;12.146;2022-09-09T07:23:28;97276.44;;;17.24;80.35
62025;BME280;47978;49.118;12.146;2022-09-09T07:26:01;97281.47;;;17.19;80.32
62025;BME280;47978;49.118;12.146;2022-09-09T07:28:27;97280.91;;;17.41;80.99
62025;BME280;47978;49.118;12.146;2022-09-09T07:30:55;97283.03;;;17.60;80.99
62025;BME280;47978;49.118;12.146;2022-09-09T07:33:21;97281.50;;;17.91;79.52
62025;BME280;47978;49.118;12.146;2022-09-09T07:35:48;97279.97;;;18.25;78.08
62025;BME280;47978;49.118;12.146;2022-09-09T07:38:16;97284.66;;;18.53;76.49
62025;BME280;47978;49.118;12.146;2022-09-09T07:40:43;97287.06;;;18.54;75.69
62025;BME280;47978;49.118;12.146;2022-09-09T07:43:09;97292.03;;;18.77;75.25
62025;BME280;47978;49.118;12.146;2022-09-09T07:45:42;97290.91;;;19.17;74.64
62025;BME280;47978;49.118;12.146;2022-09-09T07:48:08;97303.00;;;19.01;75.34
62025;BME280;47978;49.118;12.146;2022-09-09T07:50:35;97305.59;;;18.43;77.04
62025;BME280;47978;49.118;12.146;2022-09-09T07:53:01;97300.00;;;17.95;80.70
62025;BME280;47978;49.118;12.146;2022-09-09T07:55:29;97307.75;;;17.58;81.83
62025;BME280;47978;49.118;12.146;2022-09-09T07:57:56;97316.03;;;17.26;84.22
62025;BME280;47978;49.118;12.146;2022-09-09T08:00:22;97332.53;;;16.91;85.66
62025;BME280;47978;49.118;12.146;2022-09-09T08:02:49;97328.09;;;16.41;87.77
62025;BME280;47978;49.118;12.146;2022-09-09T08:05:16;97334.06;;;16.39;88.42
62025;BME280;47978;49.118;12.146;2022-09-09T08:07:42;97327.63;;;16.27;87.92
62025;BME280;47978;49.118;12.146;2022-09-09T08:10:09;97331.94;;;16.24;88.07
62025;BME280;47978;49.118;12.146;2022-09-09T08:12:37;97343.66;;;16.05;90.95
62025;BME280;47978;49.118;12.146;2022-09-09T08:15:04;97343.97;;;15.91;90.63
62025;BME280;47978;49.118;12.146;2022-09-09T08:17:31;97346.84;;;15.62;91.86
62025;BME280;47978;49.118;12.146;2022-09-09T08:19:57;97351.97;;;15.60;92.17
62025;BME280;47978;49.118;12.146;2022-09-09T08:22:24;97344.03;;;15.49;92.71
62025;BME280;47978;49.118;12.146;2022-09-09T08:24:50;97350.41;;;15.50;92.53
62025;BME280;47978;49.118;12.146;2022-09-09T08:27:17;97348.44;;;15.50;93.18
62025;BME280;47978;49.118;12.146;2022-09-09T08:29:45;97355.88;;;15.46;92.54
62025;BME280;47978;49.118;12.146;2022-09-09T08:32:12;97348.91;;;15.52;92.01
62025;BME280;47978;49.118;12.146;2022-09-09T08:34:39;97349.47;;;15.46;92.58
62025;BME280;47978;49.118;12.146;2022-09-09T08:37:07;97348.06;;;15.40;92.53
62025;BME280;47978;49.118;12.146;2022-09-09T08:39:33;97346.50;;;15.30;92.01
62025;BME280;47978;49.118;12.146;2022-09-09T08:42:22;97346.16;;;15.32;91.40
62025;BME280;47978;49.118;12.146;2022-09-09T08:45:16;97345.56;;;15.26;92.73
62025;BME280;47978;49.118;12.146;2022-09-09T08:47:54;97353.03;;;15.34;91.18
62025;BME280;47978;49.118;12.146;2022-09-09T08:50:26;97356.53;;;15.43;91.09
62025;BME280;47978;49.118;12.146;2022-09-09T08:52:59;97346.09;;;15.40;91.15
62025;BME280;47978;49.118;12.146;2022-09-09T08:55:35;97341.72;;;15.51;91.45
62025;BME280;47978;49.118;12.146;2022-09-09T08:58:09;97355.22;;;15.62;91.08
62025;BME280;47978;49.118;12.146;2022-09-09T09:00:44;97353.72;;;15.64;92.08
62025;BME280;47978;49.118;12.146;2022-09-09T09:03:22;97354.84;;;15.72;90.77
62025;BME280;47978;49.118;12.146;2022-09-09T09:05:59;97367.22;;;15.95;92.36
62025;BME280;47978;49.118;12.146;2022-09-09T09:08:33;97370.97;;;16.12;91.71
62025;BME280;47978;49.118;12.146;2022-09-09T09:11:02;97363.09;;;16.38;90.52
62025;BME280;47978;49.118;12.146;2022-09-09T09:13:34;97354.66;;;16.59;90.37
62025;BME280;47978;49.118;12.146;2022-09-09T09:16:17;97356.25;;;16.73;88.33
62025;BME280;47978;49.118;12.146;2022-09-09T09:18:46;97362.66;;;16.98;87.47
62025;BME280;47978;49.118;12.146;2022-09-09T09:21:16;97360.81;;;17.02;87.26
62025;BME280;47978;49.118;12.146;2022-09-09T09:23:50;97363.09;;;17.12;86.27
62025;BME280;47978;49.118;12.146;2022-09-09T09:26:20;97354.19;;;17.35;86.42
62025;BME280;47978;49.118;12.146;2022-09-09T09:28:47;97354.16;;;17.06;85.52
62025;BME280;47978;49.118;12.146;2022-09-09T09:31:19;97352.03;;;17.16;84.80
62025;BME280;47978;49.118;12.146;2022-09-09T09:33:48;97347.16;;;17.13;84.64
62025;BME280;47978;49.118;12.146;2022-09-09T09:36:15;97348.19;;;17.20;86.37
62025;BME280;47978;49.118;12.146;2022-09-09T09:38:53;97340.50;;;17.17;85.91
62025;BME280;47978;49.118;12.146;2022-09-09T09:41:41;97340.97;;;17.19;85.21
62025;BME280;47978;49.118;12.146;2022-09-09T09:44:22;97339.47;;;17.50;83.80
62025;BME280;47978;49.118;12.146;2022-09-09T09:46:50;97332.47;;;17.56;84.39
62025;BME280;47978;49.118;12.146;2022-09-09T09:49:17;97329.66;;;17.84;83.32
62025;BME280;47978;49.118;12.146;2022-09-09T09:51:44;97327.75;;;18.16;82.37
62025;BME280;47978;49.118;12.146;2022-09-09T09:54:18;97331.88;;;18.54;79.85
62025;BME280;47978;49.118;12.146;2022-09-09T09:56:48;97333.03;;;18.69;80.21
62025;BME280;47978;49.118;12.146;2022-09-09T09:59:23;97326.66;;;18.84;78.06
62025;BME280;47978;49.118;12.146;2022-09-09T10:02:15;97328.06;;;18.94;78.73
62025;BME280;47978;49.118;12.146;2022-09-09T10:04:42;97320.03;;;19.12;77.22
62025;BME280;47978;49.118;12.146;2022-09-09T10:07:10;97322.97;;;19.00;76.74
62025;BME280;47978;49.118;12.146;2022-09-09T10:09:37;97320.19;;;18.84;76.62
62025;BME280;47978;49.118;12.146;2022-09-09T10:12:10;97319.94;;;18.89;76.77
62025;BME280;47978;49.118;12.146;2022-09-09T10:14:46;97317.16;;;19.08;79.66
62025;BME280;47978;49.118;12.146;2022-09-09T10:17:20;97310.75;;;19.08;73.82
62025;BME280;47978;49.118;12.146;2022-09-09T10:19:56;97317.31;;;18.80;72.57
62025;BME280;47978;49.118;12.146;2022-09-09T10:22:32;97317.59;;;18.59;73.73
62025;BME280;47978;49.118;12.146;2022-09-09T10:25:21;97317.50;;;18.72;73.71
62025;BME280;47978;49.118;12.146;2022-09-09T10:28:06;97321.47;;;18.86;74.82
62025;BME280;47978;49.118;12.146;2022-09-09T10:30:42;97325.81;;;18.84;72.85
62025;BME280;47978;49.118;12.146;2022-09-09T10:33:20;97317.50;;;18.72;74.81
62025;BME280;47978;49.118;12.146;2022-09-09T10:35:56;97320.03;;;18.61;75.31
62025;BME280;47978;49.118;12.146;2022-09-09T10:38:29;97315.16;;;18.58;75.15
62025;BME280;47978;49.118;12.146;2022-09-09T10:41:13;97309.31;;;18.79;75.53
62025;BME280;47978;49.118;12.146;2022-09-09T10:44:02;97311.84;;;19.03;73.85
62025;BME280;47978;49.118;12.146;2022-09-09T10:46:39;97306.97;;;19.00;71.91
62025;BME280;47978;49.118;12.146;2022-09-09T10:49:20;97301.22;;;18.93;72.71
62025;BME280;47978;49.118;12.146;2022-09-09T10:51:57;97308.97;;;19.00;70.97
62025;BME280;47978;49.118;12.146;2022-09-09T10:54:35;97307.34;;;18.99;71.55
62025;BME280;47978;49.118;12.146;2022-09-09T10:57:11;97296.16;;;19.18;71.54
62025;BME280;47978;49.118;12.146;2022-09-09T10:59:42;97307.00;;;19.20;70.77
62025;BME280;47978;49.118;12.146;2022-09-09T11:02:14;97307.81;;;19.20;71.03
62025;BME280;47978;49.118;12.146;2022-09-09T11:04:46;97313.47;;;19.24;72.29
62025;BME280;47978;49.118;12.146;2022-09-09T11:07:22;97307.16;;;19.07;73.66
62025;BME280;47978;49.118;12.146;2022-09-09T11:09:56;97316.28;;;19.04;74.73
62025;BME280;47978;49.118;12.146;2022-09-09T11:12:27;97318.94;;;19.17;74.47
62025;BME280;47978;49.118;12.146;2022-09-09T11:14:59;97321.91;;;19.04;73.10
62025;BME280;47978;49.118;12.146;2022-09-09T11:17:35;97314.53;;;19.16;73.84
62025;BME280;47978;49.118;12.146;2022-09-09T11:20:11;97313.94;;;19.26;72.26
62025;BME280;47978;49.118;12.146;2022-09-09T11:22:44;97315.25;;;19.32;72.89
62025;BME280;47978;49.118;12.146;2022-09-09T11:25:16;97307.59;;;19.29;73.91
62025;BME280;47978;49.118;12.146;2022-09-09T11:27:53;97312.25;;;19.21;75.13
62025;BME280;47978;49.118;12.146;2022-09-09T11:30:26;97307.06;;;19.23;74.62
62025;BME280;47978;49.118;12.146;2022-09-09T11:33:26;97294.09;;;19.35;74.80
62025;BME280;47978;49.118;12.146;2022-09-09T11:36:12;97303.19;;;19.47;72.91
62025;BME280;47978;49.118;12.146;2022-09-09T11:38:44;97299.63;;;19.50;70.18
62025;BME280;47978;49.118;12.146;2022-09-09T11:41:12;97298.09;;;19.53;68.94
62025;BME280;47978;49.118;12.146;2022-09-09T11:43:48;97286.56;;;19.58;69.07
62025;BME280;47978;49.118;12.146;2022-09-09T11:46:17;97297.28;;;19.72;70.61
62025;BME280;47978;49.118;12.146;2022-09-09T11:48:57;97297.31;;;19.95;69.21
62025;BME280;47978;49.118;12.146;2022-09-09T11:51:27;97292.31;;;19.85;66.35
62025;BME280;47978;49.118;12.146;2022-09-09T11:53:56;97295.47;;;19.83;67.01
62025;BME280;47978;49.118;12.146;2022-09-09T11:56:25;97294.44;;;19.91;66.37
62025;BME280;47978;49.118;12.146;2022-09-09T11:58:57;97292.19;;;20.00;65.46
62025;BME280;47978;49.118;12.146;2022-09-09T12:01:33;97293.94;;;20.09;70.03
62025;BME280;47978;49.118;12.146;2022-09-09T12:04:28;97281.66;;;19.94;67.60
62025;BME280;47978;49.118;12.146;2022-09-09T12:07:00;97286.75;;;19.88;67.52
62025;BME280;47978;49.118;12.146;2022-09-09T12:09:31;97290.88;;;19.94;69.72
62025;BME280;47978;49.118;12.146;2022-09-09T12:12:17;97291.06;;;19.82;67.65
62025;BME280;47978;49.118;12.146;2022-09-09T12:14:56;97282.06;;;19.73;68.51
62025;BME280;47978;49.118;12.146;2022-09-09T12:17:25;97288.00;;;19.68;70.25
62025;BME280;47978;49.118;12.146;2022-09-09T12:20:00;97292.34;;;19.65;70.49
62025;BME280;47978;49.118;12.146;2022-09-09T12:22:35;97285.91;;;19.65;69.54
62025;BME280;47978;49.118;12.146;2022-09-09T12:25:09;97285.91;;;19.65;70.46
62025;BME280;47978;49.118;12.146;2022-09-09T12:27:58;97282.06;;;19.73;69.66
62025;BME280;47978;49.118;12.146;2022-09-09T12:30:30;97268.84;;;19.73;69.98
62025;BME280;47978;49.118;12.146;2022-09-09T12:33:02;97272.03;;;19.72;71.17
62025;BME280;47978;49.118;12.146;2022-09-09T12:35:33;97273.78;;;19.61;71.95
62025;BME280;47978;49.118;12.146;2022-09-09T12:38:02;97274.22;;;19.63;71.37
62025;BME280;47978;49.118;12.146;2022-09-09T12:40:31;97272.34;;;19.67;71.91
62025;BME280;47978;49.118;12.146;2022-09-09T12:42:58;97267.81;;;19.82;72.50
62025;BME280;47978;49.118;12.146;2022-09-09T12:45:28;97270.63;;;19.82;70.88
62025;BME280;47978;49.118;12.146;2022-09-09T12:47:57;97269.97;;;19.69;70.62
62025;BME280;47978;49.118;12.146;2022-09-09T12:50:28;97265.25;;;19.53;72.55
62025;BME280;47978;49.118;12.146;2022-09-09T12:52:58;97264.44;;;19.53;71.50
62025;BME280;47978;49.118;12.146;2022-09-09T12:55:28;97256.66;;;19.46;71.38
62025;BME280;47978;49.118;12.146;2022-09-09T12:57:57;97260.53;;;19.38;72.54
62025;BME280;47978;49.118;12.146;2022-09-09T13:00:25;97255.88;;;19.26;72.49
62025;BME280;47978;49.118;12.146;2022-09-09T13:02:53;97254.94;;;19.19;73.01
62025;BME280;47978;49.118;12.146;2022-09-09T13:05:22;97254.84;;;18.96;74.14
62025;BME280;47978;49.118;12.146;2022-09-09T13:07:49;97246.41;;;18.76;74.69
62025;BME280;47978;49.118;12.146;2022-09-09T13:10:23;97240.59;;;18.85;75.44